Time;durP1;ratioP1;P1;durP2;ratioP2;P2;SDS_P1;SDS_P2;PMS_P1;PMS_P2;Temp;Humidity;BMP_temperature;BMP_pressure;BME280_temperature;BME280_humidity;BME280_pressure;Samples;Min_cycle;Max_cycle;Signal;HPM_P1;HPM_P2
2023/01/23 00:00:47;;;;;;;8.77;2.67;;;-0.30;99.90;;;;;;4993653;28;20502;-90
2023/01/23 00:03:13;;;;;;;9.03;3.23;;;-0.30;99.90;;;;;;5010053;28;20033;-90
2023/01/23 00:05:40;;;;;;;8.30;3.23;;;0.50;99.90;;;;;;4995016;28;20031;-90
2023/01/23 00:08:05;;;;;;;7.70;2.60;;;-0.10;99.90;;;;;;4992184;28;20041;-89
2023/01/23 00:10:31;;;;;;;7.17;2.77;;;-0.10;99.90;;;;;;5011384;28;20019;-88
2023/01/23 00:12:57;;;;;;;7.73;2.87;;;-0.10;99.90;;;;;;5009308;28;20022;-88
2023/01/23 00:15:23;;;;;;;7.90;2.80;;;-0.20;99.90;;;;;;4992883;28;20117;-88
2023/01/23 00:17:48;;;;;;;8.73;2.53;;;-0.20;99.90;;;;;;4992332;28;20437;-88
2023/01/23 00:20:14;;;;;;;5.30;2.27;;;-0.20;99.90;;;;;;4993365;28;20027;-88
2023/01/23 00:22:39;;;;;;;10.30;3.40;;;-0.20;99.90;;;;;;4994532;28;20500;-87
2023/01/23 00:25:05;;;;;;;6.60;2.80;;;-0.20;99.90;;;;;;4990972;28;20042;-87
2023/01/23 00:27:31;;;;;;;4.90;1.93;;;-0.30;99.90;;;;;;4993280;28;20026;-87
2023/01/23 00:29:57;;;;;;;8.33;2.53;;;0.30;99.90;;;;;;4993958;28;20376;-88
2023/01/23 00:32:23;;;;;;;7.67;2.43;;;-0.20;99.90;;;;;;4994721;28;20502;-88
2023/01/23 00:34:48;;;;;;;7.60;2.80;;;-0.20;99.90;;;;;;4992953;28;20064;-88
2023/01/23 00:37:15;;;;;;;5.93;2.90;;;-0.20;99.90;;;;;;4993160;28;20077;-88
2023/01/23 00:39:41;;;;;;;6.67;2.17;;;-0.20;99.90;;;;;;4993445;28;20390;-87
2023/01/23 00:42:06;;;;;;;7.20;2.40;;;-0.20;99.90;;;;;;4991764;28;20084;-88
2023/01/23 00:44:32;;;;;;;8.53;2.80;;;-0.20;99.90;;;;;;4994247;28;20034;-88
2023/01/23 00:46:58;;;;;;;9.17;2.60;;;-0.20;99.90;;;;;;5010429;28;20043;-87
2023/01/23 00:49:24;;;;;;;6.90;2.63;;;-0.20;99.90;;;;;;4993059;28;20041;-88
2023/01/23 00:51:51;;;;;;;10.27;2.57;;;-0.10;99.90;;;;;;4986704;28;20029;-88
2023/01/23 00:54:19;;;;;;;8.37;2.80;;;-0.20;99.90;;;;;;4991406;28;20030;-88
2023/01/23 00:56:44;;;;;;;10.30;3.33;;;-0.10;99.90;;;;;;4991145;28;20517;-88
2023/01/23 00:59:10;;;;;;;9.80;3.53;;;-0.20;99.90;;;;;;4986978;28;20030;-86
2023/01/23 01:01:36;;;;;;;10.67;3.90;;;-0.20;99.90;;;;;;5003064;28;20430;-86
2023/01/23 01:04:01;;;;;;;7.77;3.53;;;-0.10;99.90;;;;;;5001734;28;20037;-88
2023/01/23 01:06:28;;;;;;;8.90;2.30;;;-0.10;99.90;;;;;;4993462;28;20022;-88
2023/01/23 01:08:54;;;;;;;7.10;2.80;;;-0.10;99.90;;;;;;4991995;28;20006;-87
2023/01/23 01:11:20;;;;;;;8.50;2.30;;;-0.10;99.90;;;;;;5006747;28;20406;-86
2023/01/23 01:13:45;;;;;;;6.80;2.83;;;-0.10;99.90;;;;;;4991294;28;20057;-88
2023/01/23 01:16:11;;;;;;;7.67;2.53;;;-0.10;99.90;;;;;;4990450;28;20101;-88
2023/01/23 01:18:37;;;;;;;7.73;3.53;;;-0.10;99.90;;;;;;4989772;28;20382;-88
2023/01/23 01:21:08;;;;;;;7.73;2.50;;;-0.10;99.90;;;;;;5002861;28;20026;-87
2023/01/23 01:23:35;;;;;;;8.27;2.67;;;-0.20;99.90;;;;;;4990951;28;20046;-88
2023/01/23 01:26:01;;;;;;;8.40;2.57;;;0.40;99.90;;;;;;5000403;28;20109;-88
2023/01/23 01:28:29;;;;;;;8.10;2.70;;;-0.20;99.90;;;;;;4995794;28;20025;-89
2023/01/23 01:30:55;;;;;;;6.63;2.27;;;-0.20;99.90;;;;;;4992174;28;20026;-88
2023/01/23 01:33:23;;;;;;;6.87;2.93;;;-0.20;99.90;;;;;;4991799;28;20032;-86
2023/01/23 01:35:48;;;;;;;7.80;3.27;;;-0.20;99.90;;;;;;4986498;28;20054;-88
2023/01/23 01:38:14;;;;;;;6.40;2.20;;;-0.20;99.90;;;;;;4990437;28;20045;-87
2023/01/23 01:40:40;;;;;;;8.27;3.17;;;-0.20;99.90;;;;;;5008487;28;20026;-88
2023/01/23 01:43:14;;;;;;;9.37;2.87;;;-0.20;99.90;;;;;;4989778;28;20042;-87
2023/01/23 01:46:10;;;;;;;6.20;2.50;;;-0.10;99.90;;;;;;4990796;28;20069;-88
2023/01/23 01:49:03;;;;;;;6.80;2.87;;;-0.10;99.90;;;;;;4987820;28;20026;-88
2023/01/23 01:51:46;;;;;;;6.82;2.25;;;-0.10;99.90;;;;;;4984472;28;20495;-88
2023/01/23 01:54:18;;;;;;;6.77;2.53;;;-0.10;99.90;;;;;;4986916;28;20512;-88
2023/01/23 01:56:50;;;;;;;8.52;2.92;;;-0.20;99.90;;;;;;4990026;28;20040;-87
2023/01/23 01:59:18;;;;;;;7.90;3.25;;;-0.20;99.90;;;;;;4990451;28;20498;-87
2023/01/23 02:01:48;;;;;;;8.60;2.83;;;-0.20;99.90;;;;;;4991176;28;20089;-87
2023/01/23 02:04:15;;;;;;;8.63;2.83;;;-0.20;99.90;;;;;;4984677;28;20030;-87
2023/01/23 02:06:41;;;;;;;7.17;2.97;;;-0.10;99.90;;;;;;4990759;28;20057;-87
2023/01/23 02:09:22;;;;;;;6.87;2.83;;;-0.10;99.90;;;;;;4992005;28;20044;-88
2023/01/23 02:11:48;;;;;;;9.03;2.47;;;-0.10;99.90;;;;;;4988843;28;20097;-87
2023/01/23 02:14:14;;;;;;;7.47;2.53;;;-0.10;99.90;;;;;;4986910;28;20034;-87
2023/01/23 02:16:45;;;;;;;6.77;2.20;;;-0.10;99.90;;;;;;4991290;28;20034;-87
2023/01/23 02:19:35;;;;;;;13.17;2.60;;;-0.10;99.90;;;;;;4990286;28;20490;-87
2023/01/23 02:22:20;;;;;;;9.97;2.97;;;-0.10;99.90;;;;;;4989869;28;20022;-87
2023/01/23 02:24:57;;;;;;;7.77;2.40;;;-0.10;99.90;;;;;;4974690;28;20498;-87
2023/01/23 02:27:22;;;;;;;7.27;2.60;;;-0.10;99.90;;;;;;4995360;28;20036;-86
2023/01/23 02:29:50;;;;;;;7.70;2.47;;;-0.10;99.90;;;;;;5007734;28;20030;-87
2023/01/23 02:32:18;;;;;;;8.50;2.97;;;-0.10;99.90;;;;;;4988889;28;20475;-87
2023/01/23 02:34:44;;;;;;;8.43;2.80;;;-0.10;99.90;;;;;;4981453;28;20061;-87
2023/01/23 02:37:11;;;;;;;8.40;2.83;;;-0.10;99.90;;;;;;5005910;28;20034;-88
2023/01/23 02:39:38;;;;;;;9.67;3.03;;;-0.10;99.90;;;;;;5006117;28;20034;-86
2023/01/23 02:42:05;;;;;;;7.93;3.17;;;-0.10;99.90;;;;;;5005448;28;20041;-87
2023/01/23 02:44:31;;;;;;;7.83;2.50;;;-0.10;99.90;;;;;;5001998;28;20133;-87
2023/01/23 02:47:00;;;;;;;10.00;3.33;;;-0.10;99.90;;;;;;4989404;28;20065;-88
2023/01/23 02:49:26;;;;;;;9.27;3.47;;;-0.20;99.90;;;;;;4989404;28;20026;-88
2023/01/23 02:51:54;;;;;;;9.33;2.60;;;-0.10;99.90;;;;;;5001841;28;20089;-87
2023/01/23 02:54:20;;;;;;;7.27;2.60;;;-0.10;99.90;;;;;;4990083;28;20042;-88
2023/01/23 02:56:45;;;;;;;7.60;2.77;;;-0.10;99.90;;;;;;5003712;28;20039;-87
2023/01/23 03:01:56;;;;;;;9.00;3.13;;;-0.10;99.90;;;;;;4991289;28;20044;-87
2023/01/23 03:04:22;;;;;;;9.07;3.00;;;-0.10;99.90;;;;;;4989980;28;20560;-87
2023/01/23 03:06:48;;;;;;;8.90;3.43;;;-0.10;99.90;;;;;;5002406;28;20112;-87
2023/01/23 03:09:16;;;;;;;7.33;2.90;;;-0.10;99.90;;;;;;4993067;28;20029;-87
2023/01/23 03:11:43;;;;;;;8.30;2.80;;;0.00;99.90;;;;;;4993670;28;20597;-87
2023/01/23 03:14:11;;;;;;;7.13;2.70;;;-0.10;99.90;;;;;;4994194;28;20049;-89
2023/01/23 03:16:37;;;;;;;9.80;2.97;;;-0.10;99.90;;;;;;4994007;28;20014;-88
2023/01/23 03:19:07;;;;;;;9.50;2.87;;;-0.10;99.90;;;;;;4989553;28;20438;-87
2023/01/23 03:21:33;;;;;;;11.93;3.10;;;0.90;99.90;;;;;;5008664;28;20469;-87
2023/01/23 03:23:59;;;;;;;8.53;3.27;;;-0.10;99.90;;;;;;4982464;28;20026;-87
2023/01/23 03:26:24;;;;;;;9.57;2.90;;;0.00;99.90;;;;;;4992932;28;20027;-87
2023/01/23 03:31:34;;;;;;;9.70;3.40;;;0.00;99.90;;;;;;4998575;28;20029;-86
2023/01/23 03:34:00;;;;;;;9.80;2.77;;;-0.10;99.90;;;;;;5009811;28;20018;-86
2023/01/23 03:36:26;;;;;;;8.57;2.67;;;-0.10;99.90;;;;;;4998549;28;21255;-87
2023/01/23 03:41:38;;;;;;;8.27;2.60;;;-0.10;99.90;;;;;;4992380;28;20425;-87
2023/01/23 03:44:03;;;;;;;8.67;3.13;;;-0.10;99.90;;;;;;4993149;28;20023;-88
2023/01/23 03:46:29;;;;;;;10.03;3.07;;;-0.10;99.90;;;;;;5008699;28;20382;-88
2023/01/23 03:48:54;;;;;;;8.07;3.23;;;-0.10;99.90;;;;;;4988093;28;20535;-87
2023/01/23 03:51:20;;;;;;;10.63;2.93;;;0.00;99.90;;;;;;4992977;28;20038;-87
2023/01/23 03:53:46;;;;;;;8.70;2.87;;;-0.10;99.90;;;;;;4994700;28;20026;-88
2023/01/23 03:56:11;;;;;;;7.10;2.97;;;-0.10;99.90;;;;;;4993040;28;20046;-88
2023/01/23 03:58:37;;;;;;;7.03;3.27;;;-0.10;99.90;;;;;;4993038;28;20072;-86
2023/01/23 04:01:07;;;;;;;8.77;3.33;;;0.80;99.90;;;;;;4995129;28;20022;-87
2023/01/23 04:03:33;;;;;;;9.67;3.23;;;-0.10;99.90;;;;;;4989962;28;20033;-88
2023/01/23 04:05:59;;;;;;;8.43;3.23;;;-0.10;99.90;;;;;;4993503;28;20026;-87
2023/01/23 04:08:24;;;;;;;8.63;2.83;;;0.00;99.90;;;;;;4994191;28;20482;-88
2023/01/23 04:10:50;;;;;;;8.40;3.17;;;-0.10;99.90;;;;;;4996791;28;20021;-87
2023/01/23 04:13:16;;;;;;;10.17;3.13;;;-0.10;99.90;;;;;;5009656;28;20026;-87
2023/01/23 04:15:42;;;;;;;11.93;3.27;;;-0.10;99.90;;;;;;5005312;28;20031;-88
2023/01/23 04:18:07;;;;;;;8.80;2.87;;;0.00;99.90;;;;;;4999638;28;20098;-87
2023/01/23 04:20:33;;;;;;;11.80;3.27;;;0.00;99.90;;;;;;5010700;28;20057;-88
2023/01/23 04:22:58;;;;;;;9.17;3.03;;;0.10;99.90;;;;;;5005666;28;20022;-87
2023/01/23 04:25:24;;;;;;;9.27;2.90;;;0.00;99.90;;;;;;4992993;28;20038;-87
2023/01/23 04:27:50;;;;;;;9.33;3.13;;;0.00;99.90;;;;;;4997479;28;20102;-87
2023/01/23 04:30:15;;;;;;;9.53;3.43;;;0.00;99.90;;;;;;4997783;28;20038;-88
2023/01/23 04:32:41;;;;;;;6.93;2.50;;;0.00;99.90;;;;;;4992861;28;20114;-88
2023/01/23 04:35:07;;;;;;;11.07;3.40;;;0.00;99.90;;;;;;4996159;28;20054;-87
2023/01/23 04:37:32;;;;;;;9.43;3.43;;;0.00;99.90;;;;;;4996046;28;20054;-87
2023/01/23 04:39:58;;;;;;;8.97;2.80;;;0.00;99.90;;;;;;4998068;28;20031;-87
2023/01/23 04:42:24;;;;;;;9.20;2.93;;;0.00;99.90;;;;;;4995212;28;20053;-88
2023/01/23 04:44:49;;;;;;;10.33;2.83;;;0.00;99.90;;;;;;4996886;28;20620;-87
2023/01/23 04:47:15;;;;;;;11.83;3.77;;;0.00;99.90;;;;;;4996957;28;20029;-88
2023/01/23 04:49:42;;;;;;;6.33;2.53;;;0.00;99.90;;;;;;4991913;28;20042;-87
2023/01/23 04:52:07;;;;;;;8.47;3.47;;;-0.10;99.90;;;;;;4996405;28;20023;-87
2023/01/23 04:54:33;;;;;;;8.90;2.80;;;-0.10;99.90;;;;;;5004025;28;20026;-87
2023/01/23 04:56:58;;;;;;;11.47;3.53;;;0.00;99.90;;;;;;4994180;28;20022;-87
2023/01/23 04:59:24;;;;;;;7.43;2.93;;;-0.10;99.90;;;;;;4992660;28;20038;-87
2023/01/23 05:01:50;;;;;;;8.63;3.10;;;0.40;99.90;;;;;;4992147;28;20097;-87
2023/01/23 05:04:15;;;;;;;12.00;3.43;;;0.00;99.90;;;;;;4992539;28;20061;-88
2023/01/23 05:06:41;;;;;;;14.27;3.73;;;0.00;99.90;;;;;;4993147;28;20091;-87
2023/01/23 05:09:07;;;;;;;8.93;3.03;;;-0.10;99.90;;;;;;4991755;28;20433;-87
2023/01/23 05:11:32;;;;;;;9.77;2.83;;;0.00;99.90;;;;;;5007687;28;20094;-87
2023/01/23 05:13:58;;;;;;;10.50;3.63;;;0.00;99.90;;;;;;4993249;28;20026;-88
2023/01/23 05:16:24;;;;;;;9.00;2.97;;;0.00;99.90;;;;;;4989123;28;20026;-87
2023/01/23 05:18:49;;;;;;;11.63;3.07;;;0.00;99.90;;;;;;5000478;28;20034;-87
2023/01/23 05:21:15;;;;;;;8.93;2.93;;;0.00;99.90;;;;;;5004274;28;20037;-87
2023/01/23 05:23:40;;;;;;;10.13;2.93;;;0.00;99.90;;;;;;4997919;28;20045;-87
2023/01/23 05:26:06;;;;;;;9.40;3.23;;;0.00;99.90;;;;;;4994831;28;20035;-87
2023/01/23 05:28:31;;;;;;;13.53;3.70;;;0.00;99.90;;;;;;5010180;28;20033;-86
2023/01/23 05:30:57;;;;;;;8.67;3.07;;;0.00;99.90;;;;;;4997566;28;20558;-86
2023/01/23 05:33:22;;;;;;;8.83;3.23;;;0.00;99.90;;;;;;4995401;28;20026;-87
2023/01/23 05:35:48;;;;;;;9.30;3.17;;;0.10;99.90;;;;;;4990683;28;20514;-87
2023/01/23 05:38:14;;;;;;;9.27;3.03;;;-0.20;99.90;;;;;;4991153;28;20105;-86
2023/01/23 05:40:39;;;;;;;9.03;3.10;;;0.00;99.90;;;;;;4991892;28;20022;-87
2023/01/23 05:43:05;;;;;;;12.30;3.33;;;0.00;99.90;;;;;;5000162;28;20034;-85
2023/01/23 05:45:31;;;;;;;9.93;3.23;;;0.00;99.90;;;;;;4993883;28;20038;-87
2023/01/23 05:47:56;;;;;;;7.43;2.33;;;0.00;99.90;;;;;;4991825;28;20438;-86
2023/01/23 05:50:23;;;;;;;9.07;3.27;;;0.00;99.90;;;;;;4995499;28;20026;-87
2023/01/23 05:52:49;;;;;;;9.67;3.50;;;0.00;99.90;;;;;;5006814;28;20073;-86
2023/01/23 05:55:15;;;;;;;10.40;2.80;;;0.00;99.90;;;;;;4992307;28;20029;-86
2023/01/23 05:57:41;;;;;;;9.63;3.13;;;0.00;99.90;;;;;;4992990;28;20030;-85
2023/01/23 06:00:08;;;;;;;10.77;3.43;;;0.00;99.90;;;;;;4998393;28;20034;-87
2023/01/23 06:02:34;;;;;;;8.93;3.33;;;0.00;99.90;;;;;;4981221;28;20068;-87
2023/01/23 06:05:00;;;;;;;11.80;3.40;;;0.00;99.90;;;;;;4994761;28;20450;-87
2023/01/23 06:07:25;;;;;;;12.03;3.27;;;0.00;99.90;;;;;;4993569;28;20030;-86
2023/01/23 06:09:54;;;;;;;9.63;3.30;;;0.10;99.90;;;;;;4990254;28;20036;-85
2023/01/23 06:12:20;;;;;;;10.50;3.53;;;0.00;99.90;;;;;;4993520;28;20026;-86
2023/01/23 06:14:46;;;;;;;10.03;3.53;;;0.00;99.90;;;;;;4992076;28;20449;-85
2023/01/23 06:17:12;;;;;;;15.37;3.70;;;0.10;99.90;;;;;;4990682;28;20035;-85
2023/01/23 06:19:38;;;;;;;11.40;3.20;;;0.10;99.90;;;;;;4988976;28;20490;-87
2023/01/23 06:22:05;;;;;;;7.20;2.97;;;0.10;99.90;;;;;;4989878;28;20041;-87
2023/01/23 06:24:31;;;;;;;13.07;3.00;;;0.00;99.90;;;;;;4994789;28;20030;-87
2023/01/23 06:26:56;;;;;;;10.80;3.70;;;0.00;99.90;;;;;;4991695;28;20060;-87
2023/01/23 06:29:22;;;;;;;10.00;3.13;;;0.00;99.90;;;;;;4990259;28;20077;-87
2023/01/23 06:31:48;;;;;;;9.87;3.43;;;0.00;99.90;;;;;;4991621;28;20068;-87
2023/01/23 06:34:14;;;;;;;6.97;2.77;;;-0.10;99.90;;;;;;4991915;28;20053;-86
2023/01/23 06:36:40;;;;;;;13.23;4.30;;;-0.10;99.90;;;;;;5005925;28;20036;-86
2023/01/23 06:39:06;;;;;;;7.70;2.90;;;0.00;99.90;;;;;;4986706;28;20034;-87
2023/01/23 06:41:32;;;;;;;14.53;3.60;;;-0.10;99.90;;;;;;4987500;28;20364;-87
2023/01/23 06:43:58;;;;;;;9.97;3.63;;;-0.10;99.90;;;;;;4996079;28;20036;-86
2023/01/23 06:46:23;;;;;;;8.87;2.90;;;0.00;99.90;;;;;;4991861;28;20490;-87
2023/01/23 06:48:51;;;;;;;10.00;2.83;;;0.00;99.90;;;;;;4992322;28;20628;-87
2023/01/23 06:51:16;;;;;;;8.60;3.33;;;0.00;99.90;;;;;;4993844;28;20082;-87
2023/01/23 06:53:42;;;;;;;9.57;3.03;;;-0.10;99.90;;;;;;4999038;28;20026;-87
2023/01/23 06:56:08;;;;;;;9.37;3.13;;;0.00;99.90;;;;;;4994903;28;20027;-87
2023/01/23 06:58:34;;;;;;;10.10;3.40;;;-0.10;99.90;;;;;;4995599;28;20080;-87
2023/01/23 07:01:14;;;;;;;10.20;3.50;;;-0.10;99.90;;;;;;4996502;28;20609;-87
2023/01/23 07:03:41;;;;;;;12.07;3.03;;;-0.10;99.90;;;;;;4994110;28;20028;-87
2023/01/23 07:06:08;;;;;;;9.27;3.03;;;0.00;99.90;;;;;;4993598;28;20026;-87
2023/01/23 07:08:34;;;;;;;12.47;2.60;;;-0.10;99.90;;;;;;4995851;28;20018;-87
2023/01/23 07:11:00;;;;;;;11.33;3.57;;;0.00;99.90;;;;;;4993397;28;20402;-87
2023/01/23 07:13:26;;;;;;;14.03;3.10;;;0.00;99.90;;;;;;4994960;28;20015;-88
2023/01/23 07:15:52;;;;;;;9.37;3.30;;;0.00;99.90;;;;;;4996777;28;20026;-88
2023/01/23 07:18:18;;;;;;;9.57;3.03;;;0.00;99.90;;;;;;4998417;28;20030;-88
2023/01/23 07:20:44;;;;;;;11.43;4.67;;;0.00;99.90;;;;;;5001737;28;20093;-87
2023/01/23 07:23:10;;;;;;;12.17;3.53;;;0.00;99.90;;;;;;4991933;28;20558;-85
2023/01/23 07:25:36;;;;;;;8.90;3.27;;;0.00;99.90;;;;;;4985881;28;20474;-87
2023/01/23 07:28:02;;;;;;;9.87;2.93;;;0.00;99.90;;;;;;4994356;28;20033;-87
2023/01/23 07:30:28;;;;;;;8.70;3.23;;;0.10;99.90;;;;;;4991005;28;20522;-88
2023/01/23 07:32:54;;;;;;;12.40;3.70;;;0.00;99.90;;;;;;4991700;28;20042;-87
2023/01/23 07:35:21;;;;;;;8.93;3.23;;;0.10;99.90;;;;;;4994752;28;20109;-87
2023/01/23 07:37:46;;;;;;;9.57;3.07;;;0.10;99.90;;;;;;4993880;28;20033;-87
2023/01/23 07:40:12;;;;;;;9.77;2.77;;;0.10;99.90;;;;;;4993439;28;20030;-88
2023/01/23 07:42:38;;;;;;;8.97;3.37;;;0.10;99.90;;;;;;4999697;28;20546;-87
2023/01/23 07:45:05;;;;;;;8.80;3.00;;;0.10;99.90;;;;;;5004301;28;20104;-87
2023/01/23 07:47:32;;;;;;;8.63;2.90;;;0.10;99.90;;;;;;4983538;28;20010;-87
2023/01/23 07:50:01;;;;;;;12.67;3.07;;;0.10;99.90;;;;;;4994917;28;20022;-87
2023/01/23 07:52:27;;;;;;;9.97;3.27;;;0.20;99.90;;;;;;5009257;28;20543;-87
2023/01/23 07:54:52;;;;;;;12.40;3.23;;;0.80;99.90;;;;;;5003642;28;20026;-87
2023/01/23 07:57:18;;;;;;;11.07;4.37;;;0.20;99.90;;;;;;4997061;28;20034;-87
2023/01/23 07:59:44;;;;;;;8.17;3.20;;;0.20;99.90;;;;;;5010038;28;20030;-86
2023/01/23 08:02:10;;;;;;;8.00;2.90;;;0.20;99.90;;;;;;4995696;28;20030;-88
2023/01/23 08:04:36;;;;;;;8.70;3.70;;;0.20;99.90;;;;;;4982905;28;20673;-88
2023/01/23 08:07:02;;;;;;;11.53;3.67;;;0.30;99.90;;;;;;4993760;28;20085;-87
2023/01/23 08:09:28;;;;;;;10.97;3.73;;;0.30;99.90;;;;;;4995568;28;20624;-87
2023/01/23 08:11:54;;;;;;;12.70;3.63;;;0.20;99.90;;;;;;4994816;28;20018;-86
2023/01/23 08:14:19;;;;;;;11.27;3.63;;;0.30;99.90;;;;;;5008212;28;20559;-88
2023/01/23 08:16:50;;;;;;;10.70;3.53;;;0.30;99.90;;;;;;5007699;28;20073;-87
2023/01/23 08:19:16;;;;;;;11.67;2.90;;;0.30;99.90;;;;;;4999406;28;20723;-88
2023/01/23 08:21:43;;;;;;;8.80;2.70;;;-0.40;99.90;;;;;;5007357;28;20533;-88
2023/01/23 08:24:11;;;;;;;13.27;3.70;;;0.40;99.90;;;;;;5001657;28;20032;-87
2023/01/23 08:26:37;;;;;;;9.63;2.90;;;0.40;99.90;;;;;;5004746;28;20474;-87
2023/01/23 08:29:03;;;;;;;12.70;3.30;;;0.40;99.90;;;;;;5009897;28;20062;-87
2023/01/23 08:31:30;;;;;;;11.30;3.20;;;0.40;99.90;;;;;;5008541;28;20050;-87
2023/01/23 08:33:55;;;;;;;9.60;3.33;;;0.50;99.90;;;;;;5007806;28;20026;-87
2023/01/23 08:36:23;;;;;;;10.53;3.50;;;0.40;99.90;;;;;;4989180;28;20186;-87
2023/01/23 08:38:48;;;;;;;13.33;3.60;;;0.40;99.90;;;;;;5008098;28;20026;-87
2023/01/23 08:41:14;;;;;;;15.13;3.37;;;0.40;99.90;;;;;;4993335;28;20122;-87
2023/01/23 08:43:41;;;;;;;12.50;4.03;;;0.40;99.90;;;;;;5000410;28;20036;-87
2023/01/23 08:46:08;;;;;;;9.47;3.40;;;0.40;99.90;;;;;;4993982;28;20406;-86
2023/01/23 08:48:34;;;;;;;11.20;3.40;;;0.40;99.90;;;;;;4994000;28;20019;-87
2023/01/23 08:51:03;;;;;;;10.67;2.30;;;-0.30;99.90;;;;;;4991213;28;20081;-88
2023/01/23 08:53:30;;;;;;;10.53;2.83;;;0.40;99.90;;;;;;4993940;28;20049;-85
2023/01/23 08:56:04;;;;;;;12.27;3.83;;;0.50;99.90;;;;;;4991298;28;20549;-88
2023/01/23 08:58:30;;;;;;;11.77;2.70;;;0.50;99.90;;;;;;4994409;28;20029;-86
2023/01/23 09:00:56;;;;;;;10.50;2.60;;;0.60;99.90;;;;;;4991744;28;20026;-86
2023/01/23 09:03:21;;;;;;;10.00;3.27;;;0.60;99.90;;;;;;4995372;28;20030;-88
2023/01/23 09:05:47;;;;;;;9.53;3.40;;;0.60;99.90;;;;;;4993210;28;20042;-89
2023/01/23 09:08:13;;;;;;;12.60;3.77;;;0.40;99.90;;;;;;5009287;28;20045;-85
2023/01/23 09:10:44;;;;;;;7.00;3.03;;;0.90;99.90;;;;;;4991225;28;20445;-85
2023/01/23 09:13:10;;;;;;;6.18;2.20;;;1.10;99.90;;;;;;4990460;28;20454;-85
2023/01/23 09:15:39;;;;;;;10.83;3.20;;;0.00;99.90;;;;;;4992728;28;20057;-85
2023/01/23 09:18:05;;;;;;;10.17;3.60;;;1.20;99.90;;;;;;4995099;28;20073;-85
2023/01/23 09:20:30;;;;;;;8.20;3.10;;;1.20;99.90;;;;;;4992539;28;20019;-85
2023/01/23 09:26:13;;;;;;;10.07;3.03;;;2.10;99.90;;;;;;4995076;28;20080;-85
2023/01/23 09:28:45;;;;;;;9.47;2.73;;;2.30;99.90;;;;;;5006932;28;20053;-86
2023/01/23 09:31:13;;;;;;;6.17;2.00;;;1.40;99.90;;;;;;4998942;28;20026;-86
2023/01/23 09:33:42;;;;;;;6.90;2.20;;;1.30;99.90;;;;;;5008232;28;20030;-85
2023/01/23 09:36:13;;;;;;;9.47;2.57;;;1.30;99.90;;;;;;4991108;28;20034;-84
2023/01/23 09:38:44;;;;;;;8.10;2.57;;;2.00;99.90;;;;;;4990093;28;20092;-85
2023/01/23 09:41:17;;;;;;;9.60;3.10;;;1.30;99.90;;;;;;4993731;28;20031;-85
2023/01/23 09:44:06;;;;;;;8.93;2.53;;;1.50;99.90;;;;;;4992947;28;20030;-86
2023/01/23 09:46:42;;;;;;;7.13;2.60;;;0.90;99.90;;;;;;4990618;28;20660;-85
2023/01/23 09:49:26;;;;;;;8.60;2.57;;;0.90;99.90;;;;;;5006842;28;20026;-85
2023/01/23 09:52:15;;;;;;;7.23;2.10;;;1.40;99.90;;;;;;4996339;28;20172;-85
2023/01/23 09:54:59;;;;;;;10.70;2.43;;;1.50;99.90;;;;;;4993230;28;20026;-86
2023/01/23 09:57:34;;;;;;;6.20;1.60;;;1.80;99.90;;;;;;4992087;28;20015;-85
2023/01/23 10:00:29;;;;;;;4.77;1.57;;;0.00;99.90;;;;;;4993526;28;20072;-85
2023/01/23 10:03:05;;;;;;;10.63;2.93;;;1.00;99.90;;;;;;4983777;28;20159;-85
2023/01/23 10:05:45;;;;;;;9.03;2.63;;;0.60;99.90;;;;;;4989971;28;20483;-85
2023/01/23 10:08:32;;;;;;;8.60;2.57;;;0.50;99.90;;;;;;4997204;28;20029;-85
2023/01/23 10:11:19;;;;;;;7.13;2.33;;;0.80;99.90;;;;;;4991603;28;20540;-85
2023/01/23 10:13:53;;;;;;;8.23;2.20;;;1.00;99.90;;;;;;4993056;28;20019;-85
2023/01/23 10:16:52;;;;;;;7.13;2.50;;;1.10;99.90;;;;;;4994147;28;20026;-86
2023/01/23 10:19:39;;;;;;;7.00;2.37;;;1.10;99.90;;;;;;4996247;28;20053;-83
2023/01/23 10:22:33;;;;;;;7.03;2.00;;;1.20;99.90;;;;;;4990549;28;20077;-86
2023/01/23 10:25:20;;;;;;;7.73;2.47;;;1.10;99.90;;;;;;4991075;28;20030;-85
2023/01/23 10:27:48;;;;;;;6.70;2.63;;;1.10;99.90;;;;;;4989756;28;20477;-83
2023/01/23 10:30:23;;;;;;;8.60;2.70;;;1.20;99.90;;;;;;4992800;28;20022;-84
2023/01/23 10:32:51;;;;;;;6.87;2.43;;;1.30;99.90;;;;;;4991554;28;20018;-85
2023/01/23 10:35:30;;;;;;;6.77;2.30;;;1.30;99.90;;;;;;4992310;28;20022;-85
2023/01/23 10:37:58;;;;;;;8.13;1.83;;;1.40;99.90;;;;;;4995683;28;20034;-85
2023/01/23 10:43:16;;;;;;;7.50;2.73;;;1.20;99.90;;;;;;4991412;28;20472;-84
2023/01/23 10:45:47;;;;;;;7.90;2.57;;;1.20;99.90;;;;;;4984377;28;20027;-86
2023/01/23 10:48:39;;;;;;;7.67;2.20;;;1.10;99.90;;;;;;4993744;28;20578;-86
2023/01/23 10:51:52;;;;;;;6.07;2.60;;;1.30;99.90;;;;;;4998543;28;20113;-84
2023/01/23 10:54:22;;;;;;;;;;;1.30;99.90;;;;;;4977043;28;20414;-85
2023/01/23 10:56:52;;;;;;;6.17;1.63;;;1.30;99.90;;;;;;5001989;28;19964;-86
2023/01/23 10:59:23;;;;;;;10.03;2.37;;;1.20;99.90;;;;;;4994136;28;20050;-85
2023/01/23 11:02:02;;;;;;;7.53;2.27;;;1.20;99.90;;;;;;4986761;28;20041;-85
2023/01/23 11:04:33;;;;;;;8.13;2.47;;;1.10;99.90;;;;;;4986575;28;20438;-85
2023/01/23 11:07:17;;;;;;;7.60;2.43;;;1.10;99.90;;;;;;4991333;28;20019;-85
2023/01/23 11:09:49;;;;;;;7.30;2.53;;;1.10;99.90;;;;;;4994034;28;20457;-86
2023/01/23 11:12:23;;;;;;;8.68;2.30;;;1.20;99.90;;;;;;4988790;28;20033;-86
2023/01/23 11:14:50;;;;;;;6.57;2.73;;;1.60;99.90;;;;;;4985567;28;20533;-86
2023/01/23 11:17:35;;;;;;;5.63;1.90;;;1.30;99.90;;;;;;4991986;28;20491;-85
2023/01/23 11:20:23;;;;;;;7.07;2.60;;;1.30;99.90;;;;;;5004696;28;20018;-85
2023/01/23 11:23:09;;;;;;;7.97;2.20;;;1.80;99.90;;;;;;4990044;28;20026;-85
2023/01/23 11:25:43;;;;;;;10.03;2.57;;;1.40;99.90;;;;;;4989729;28;20023;-86
2023/01/23 11:28:48;;;;;;;8.30;2.50;;;1.40;99.90;;;;;;4992612;28;20026;-85
2023/01/23 11:31:29;;;;;;;8.73;2.17;;;1.40;99.90;;;;;;4989514;28;20443;-85
2023/01/23 11:34:04;;;;;;;8.00;2.60;;;1.40;99.90;;;;;;4989405;28;20018;-86
2023/01/23 11:36:47;;;;;;;7.17;3.10;;;1.40;99.90;;;;;;4982558;28;20026;-86
2023/01/23 11:39:20;;;;;;;8.53;2.33;;;1.50;99.90;;;;;;4990380;28;20117;-86
2023/01/23 11:41:56;;;;;;;8.57;3.37;;;1.50;99.90;;;;;;4995098;28;20018;-86
2023/01/23 11:48:02;;;;;;;7.60;2.13;;;1.50;99.90;;;;;;4992616;28;20019;-86
2023/01/23 11:50:52;;;;;;;9.40;2.73;;;1.40;99.90;;;;;;5000963;28;20518;-86
2023/01/23 11:54:04;;;;;;;11.40;3.47;;;1.40;99.90;;;;;;4992291;28;20087;-86
2023/01/23 11:56:55;;;;;;;5.93;2.07;;;1.40;99.90;;;;;;4990774;28;20030;-86
2023/01/23 12:00:05;;;;;;;12.00;3.20;;;1.30;99.90;;;;;;4992949;28;20047;-86
2023/01/23 12:03:01;;;;;;;8.90;2.80;;;1.30;99.90;;;;;;4991443;28;20530;-86
2023/01/23 12:05:58;;;;;;;11.13;2.67;;;1.30;99.90;;;;;;5004336;28;20082;-86
2023/01/23 12:09:04;;;;;;;8.90;2.23;;;1.30;99.90;;;;;;4999181;28;20027;-85
2023/01/23 12:12:07;;;;;;;;;;;;;;;;;;;;;
2023/01/23 12:15:16;;;;;;;6.70;2.27;;;1.30;99.90;;;;;;4989601;28;20039;-85
2023/01/23 12:18:16;;;;;;;;;;;;;;;;;;;;;
2023/01/23 12:21:24;;;;;;;10.93;2.53;;;1.40;99.90;;;;;;4990998;28;20030;-86
2023/01/23 12:34:04;;;;;;;9.80;3.00;;;1.80;99.90;;;;;;2946282;23;20057;-85
2023/01/23 12:37:17;;;;;;;;;;;;;;;;;;;;;
2023/01/23 12:40:28;;;;;;;8.35;2.75;;;1.90;99.90;;;;;;5006814;28;20030;-85
2023/01/23 12:43:35;;;;;;;7.93;2.43;;;1.90;99.90;;;;;;4912574;29;20028;-86
2023/01/23 12:47:06;;;;;;;9.40;2.30;;;1.90;99.90;;;;;;4929299;29;20054;-86
2023/01/23 12:50:14;;;;;;;8.10;2.73;;;2.00;99.90;;;;;;4953967;28;20516;-86
2023/01/23 12:53:21;;;;;;;10.00;2.40;;;1.90;99.90;;;;;;4991919;28;20026;-86
2023/01/23 12:56:40;;;;;;;;;;;;;;;;;;;;;
2023/01/23 12:59:50;;;;;;;8.00;2.53;;;1.50;99.90;;;;;;4990551;28;20033;-85
2023/01/23 13:02:57;;;;;;;6.53;2.57;;;2.00;99.90;;;;;;4988284;28;20474;-85
2023/01/23 13:06:01;;;;;;;9.77;2.57;;;2.10;99.90;;;;;;4932879;28;20046;-85
2023/01/23 13:09:07;;;;;;;7.93;2.90;;;2.20;99.90;;;;;;4934012;28;20516;-86
2023/01/23 13:12:28;;;;;;;6.67;2.70;;;2.40;99.90;;;;;;4934054;28;20213;-86
2023/01/23 13:15:16;;;;;;;7.20;2.60;;;2.50;99.90;;;;;;4991664;28;20142;-85
2023/01/23 13:17:58;;;;;;;8.20;2.73;;;2.40;99.90;;;;;;5005144;28;20431;-86
2023/01/23 13:23:40;;;;;;;9.10;2.33;;;2.20;99.90;;;;;;4992177;28;20046;-85
2023/01/23 13:26:27;;;;;;;8.20;2.43;;;2.20;99.90;;;;;;4990526;28;20030;-86
2023/01/23 13:29:00;;;;;;;6.73;2.43;;;2.10;99.90;;;;;;4988855;28;20495;-86
2023/01/23 13:31:45;;;;;;;10.23;2.57;;;2.10;99.90;;;;;;4989996;28;20023;-85
2023/01/23 13:34:16;;;;;;;9.77;2.73;;;2.10;99.90;;;;;;4992745;28;20038;-86
2023/01/23 13:36:48;;;;;;;11.73;3.10;;;2.00;99.90;;;;;;4977934;28;20405;-86
2023/01/23 13:39:17;;;;;;;8.30;2.80;;;2.00;99.90;;;;;;4991397;28;20026;-85
2023/01/23 13:41:51;;;;;;;7.27;2.73;;;2.00;99.90;;;;;;4992182;28;20113;-86
2023/01/23 13:44:17;;;;;;;8.57;2.63;;;2.00;99.90;;;;;;4991195;28;20049;-85
2023/01/23 13:46:58;;;;;;;7.37;2.77;;;2.10;99.90;;;;;;4989751;28;20031;-88
2023/01/23 13:49:50;;;;;;;11.60;3.17;;;2.20;99.90;;;;;;4991384;28;20022;-86
2023/01/23 13:57:57;;;;;;;8.63;2.37;;;2.30;99.90;;;;;;4991920;28;20138;-87